Aérodrome :
LOGIN :

S'inscrire | Disclaimer

   EN    FR    IT 

 










Légende :    VFR   VFR Marginal   IFR   IFR Intensif   IFR Très Intensif
Visi : 
Plafond : 
>= 8 km
>= 3000ft
5 à 8 km
1000 à 3000 ft
1500m à 5 km
500 à 1000 ft
800 à 1500m
200 à 500 ft
< 800m
< 200 ft
Symboles :   Orages  Brouillard  Fortes neiges  Fortes précipitations  Vent > 20 kt
SIGMETs :   Divers  Orages  Givrage  Turbulence  Onde Orograph.  Cendres Volcan.






- Altitude de l'aérodrome : 1161 ft
- Code IATA : RJL


LELO - Logroño-Agoncillo

DERNIER METAR :
  • 090530Z 28005KT CAVOK 19/16 Q1018

METARs EXPIRÉS :
  • 090500Z 26003KT 210V320 CAVOK 18/15 Q1018
  • 090430Z AUTO VRB01KT CAVOK 18/16 Q1018
  • 090400Z AUTO 25002KT CAVOK 19/15 Q1017
  • 090330Z AUTO VRB01KT CAVOK 19/15 Q1017
  • 090300Z AUTO 26003KT 230V300 9000 NCD 19/16 Q1017

TAF TAF LELO
Valide du 09 à 06h jusqu'au 09 à 15h UTC


090500Z 0906/0915 VRB05KT CAVOK
PROB40
TEMPO 0906/0910 29010KT FEW040TCU
TEMPO 0906/0915 FEW040TCU
PROB40
TEMPO 0911/0915 SHRA FEW045CB
PROB40
TEMPO 0912/0915 VRB15G35KT TSRA FEW045CB



MET'MAP, la Météo Aéronautique d'un coup d'oeil ! - Copyright ORBIFLY Décembre 2007 - Disclaimer

ORBIFLY MET'MAP TEAM :

Programmation & Développement : Alexandra Zaïnal
Sur une idée originale de : Baudouin d'Aumeries
Assistance à la programmation : Marc-Olivier Méhu
Soutien technique & logistique : Manuel Goepfert

Contact : metmap@orbifly.com




SOURCES & CREDITS :

   NOAA